Time;durP1;ratioP1;P1;durP2;ratioP2;P2;SDS_P1;SDS_P2;PMS_P1;PMS_P2;Temp;Humidity;BMP_temperature;BMP_pressure;BME280_temperature;BME280_humidity;BME280_pressure;Samples;Min_cycle;Max_cycle;Signal;HPM_P1;HPM_P2
2021/12/01 00:01:14;;;;;;;;;;;;;;;25.51;59.74;96470.75;619655;229;68063;-67
2021/12/01 00:03:41;;;;;;;;;;;;;;;25.52;60.12;96476.92;619702;229;62989;-67
2021/12/01 00:06:10;;;;;;;;;;;;;;;25.50;59.78;96471.05;619641;229;66804;-67
2021/12/01 00:08:38;;;;;;;;;;;;;;;25.50;59.40;96461.08;619631;229;65054;-67
2021/12/01 00:11:06;;;;;;;;;;;;;;;25.50;59.67;96457.60;619652;229;65057;-67
2021/12/01 00:13:33;;;;;;;;;;;;;;;25.49;60.60;96450.65;619669;226;67531;-67
2021/12/01 00:16:02;;;;;;;;;;;;;;;25.49;60.45;96454.13;619677;229;64998;-67
2021/12/01 00:18:30;;;;;;;;;;;;;;;25.46;59.40;96450.16;619714;229;64967;-67
2021/12/01 00:20:58;;;;;;;;;;;;;;;25.47;60.80;96459.02;619689;229;67345;-67
2021/12/01 00:23:26;;;;;;;;;;;;;;;25.46;60.59;96450.16;619670;229;64962;-67
2021/12/01 00:25:54;;;;;;;;;;;;;;;25.46;59.13;96450.16;619654;229;65985;-67
2021/12/01 00:28:21;;;;;;;;;;;;;;;25.44;59.81;96452.37;619729;229;64409;-65
2021/12/01 00:30:50;;;;;;;;;;;;;;;25.44;61.20;96452.37;619712;229;66683;-68
2021/12/01 00:33:22;;;;;;;;;;;;;;;25.45;60.53;96453.97;619688;229;65237;-68
2021/12/01 00:35:48;;;;;;;;;;;;;;;25.43;59.59;96450.00;619574;229;66933;-68
2021/12/01 00:38:15;;;;;;;;;;;;;;;25.43;58.68;96441.94;619666;229;66819;-65
2021/12/01 00:40:43;;;;;;;;;;;;;;;25.42;60.44;96441.13;619697;229;65031;-65
2021/12/01 00:43:16;;;;;;;;;;;;;;;25.42;60.62;96435.73;619712;229;66861;-65
2021/12/01 00:45:46;;;;;;;;;;;;;;;25.40;60.85;96429.09;619501;229;67785;-67
2021/12/01 00:48:09;;;;;;;;;;;;;;;25.40;61.59;96429.91;619444;229;65001;-67
2021/12/01 00:50:36;;;;;;;;;;;;;;;25.38;60.71;96425.94;618794;229;66988;-67
2021/12/01 00:53:05;;;;;;;;;;;;;;;25.36;61.05;96428.94;617550;230;66794;-67
2021/12/01 00:55:33;;;;;;;;;;;;;;;25.37;65.83;96430.53;617581;230;65200;-67
2021/12/01 00:58:01;;;;;;;;;;;;;;;25.35;60.88;96424.67;617588;230;64734;-67
2021/12/01 01:00:29;;;;;;;;;;;;;;;25.34;61.23;96436.52;617521;230;67408;-67
2021/12/01 01:02:57;;;;;;;;;;;;;;;25.33;61.07;96424.19;617527;230;65078;-67
2021/12/01 01:05:26;;;;;;;;;;;;;;;25.33;61.99;96413.42;617516;230;64712;-67
2021/12/01 01:07:54;;;;;;;;;;;;;;;25.31;62.13;96418.31;617548;230;67020;-67
2021/12/01 01:10:34;;;;;;;;;;;;;;;25.32;61.79;96421.80;617578;230;65278;-67
2021/12/01 01:18:35;;;;;;;;;;;;;;;25.25;65.63;96398.84;617567;230;65269;-59
2021/12/01 01:21:03;;;;;;;;;;;;;;;25.26;60.35;96402.33;617521;230;66811;-59
2021/12/01 01:23:31;;;;;;;;;;;;;;;25.27;61.04;96398.55;617548;230;64667;-59
2021/12/01 01:26:00;;;;;;;;;;;;;;;25.26;60.43;96386.19;617509;230;65028;-59
2021/12/01 01:28:28;;;;;;;;;;;;;;;25.27;60.83;96362.80;617583;230;67575;-60
2021/12/01 01:30:56;;;;;;;;;;;;;;;25.25;62.49;96357.73;617516;230;64670;-60
2021/12/01 01:33:23;;;;;;;;;;;;;;;25.25;65.78;96346.97;617541;230;65116;-60
2021/12/01 01:35:52;;;;;;;;;;;;;;;25.23;61.92;96355.34;617543;230;64456;-60
2021/12/01 01:38:20;;;;;;;;;;;;;;;25.18;66.96;96368.14;617506;230;67018;-60
2021/12/01 01:40:48;;;;;;;;;;;;;;;25.18;67.63;96368.14;617488;230;65204;-60
2021/12/01 01:43:16;;;;;;;;;;;;;;;25.16;67.22;96368.47;617559;230;64710;-60
2021/12/01 01:45:44;;;;;;;;;;;;;;;25.19;63.95;96372.44;617546;229;67015;-60
2021/12/01 01:48:13;;;;;;;;;;;;;;;25.19;63.22;96372.44;617540;230;65240;-67
2021/12/01 01:50:42;;;;;;;;;;;;;;;25.17;65.94;96380.02;617462;229;65142;-60
2021/12/01 01:53:11;;;;;;;;;;;;;;;25.16;62.37;96370.38;617591;230;64666;-60
2021/12/01 01:55:43;;;;;;;;;;;;;;;25.15;65.24;96374.94;617524;230;65253;-60
2021/12/01 01:58:11;;;;;;;;;;;;;;;25.17;66.49;96377.33;617519;230;64923;-60
2021/12/01 02:00:50;;;;;;;;;;;;;;;25.14;65.17;96377.92;617550;230;66932;-60
2021/12/01 02:03:10;;;;;;;;;;;;;;;25.16;64.70;96371.16;616467;230;65737;-60
2021/12/01 02:05:38;;;;;;;;;;;;;;;25.14;62.65;96362.58;617568;230;67427;-60
2021/12/01 02:08:14;;;;;;;;;;;;;;;25.13;65.79;96368.28;617533;230;64402;-60
2021/12/01 02:10:35;;;;;;;;;;;;;;;25.12;64.03;96369.38;617131;230;65195;-60
2021/12/01 02:13:02;;;;;;;;;;;;;;;25.12;63.32;96372.06;617523;230;65640;-67
2021/12/01 02:15:30;;;;;;;;;;;;;;;25.12;63.25;96361.30;617504;230;67607;-67
2021/12/01 02:17:58;;;;;;;;;;;;;;;25.12;61.28;96369.38;617583;230;62663;-67
2021/12/01 02:20:25;;;;;;;;;;;;;;;25.11;61.35;96363.20;617517;230;67239;-67
2021/12/01 02:22:53;;;;;;;;;;;;;;;25.10;61.12;96361.64;617538;230;64650;-67
2021/12/01 02:25:27;;;;;;;;;;;;;;;25.10;61.30;96366.20;617525;230;65198;-67
2021/12/01 02:27:55;;;;;;;;;;;;;;;25.10;60.66;96366.20;617548;230;67226;-66
2021/12/01 02:30:23;;;;;;;;;;;;;;;25.09;60.95;96365.41;617507;230;67220;-66
2021/12/01 02:32:51;;;;;;;;;;;;;;;25.09;65.11;96357.34;617576;230;62666;-66
2021/12/01 02:35:19;;;;;;;;;;;;;;;25.08;60.63;96358.46;617534;230;66868;-66
2021/12/01 02:37:47;;;;;;;;;;;;;;;25.08;64.35;96357.67;617533;230;64494;-66
2021/12/01 02:40:14;;;;;;;;;;;;;;;25.06;63.57;96359.88;617505;227;64984;-66
2021/12/01 02:42:42;;;;;;;;;;;;;;;25.03;62.49;96348.64;617528;230;67553;-66
2021/12/01 02:45:10;;;;;;;;;;;;;;;25.02;65.40;96355.13;617564;230;64691;-66
2021/12/01 02:47:37;;;;;;;;;;;;;;;24.99;66.05;96345.00;617496;230;65208;-66
2021/12/01 02:50:05;;;;;;;;;;;;;;;24.98;65.58;96343.41;617827;229;64709;-66
2021/12/01 02:52:34;;;;;;;;;;;;;;;24.99;65.56;96346.88;619663;229;65053;-66
2021/12/01 02:55:06;;;;;;;;;;;;;;;24.97;66.30;96357.95;619636;229;63982;-67
2021/12/01 02:57:45;;;;;;;;;;;;;;;24.97;65.32;96363.34;619723;229;67444;-67
2021/12/01 03:00:13;;;;;;;;;;;;;;;24.98;65.36;96356.84;619449;229;68569;-66
2021/12/01 03:02:41;;;;;;;;;;;;;;;24.95;63.57;96354.78;619639;229;63033;-66
2021/12/01 03:05:09;;;;;;;;;;;;;;;24.94;64.43;96372.02;619654;229;67229;-66
2021/12/01 03:07:37;;;;;;;;;;;;;;;24.94;65.19;96374.72;619630;229;67250;-59
2021/12/01 03:10:06;;;;;;;;;;;;;;;24.93;64.40;96366.95;619633;229;62999;-59
2021/12/01 03:12:35;;;;;;;;;;;;;;;24.92;65.07;96360.79;619651;229;65090;-60
2021/12/01 03:15:04;;;;;;;;;;;;;;;24.90;65.62;96362.98;619636;229;64497;-60
2021/12/01 03:17:32;;;;;;;;;;;;;;;24.92;66.15;96384.19;619647;229;63783;-60
2021/12/01 03:20:00;;;;;;;;;;;;;;;24.90;65.01;96387.17;619623;229;68074;-60
2021/12/01 03:22:28;;;;;;;;;;;;;;;24.88;65.39;96392.09;619673;229;66825;-60
2021/12/01 03:24:56;;;;;;;;;;;;;;;24.88;63.13;96384.03;619703;229;62794;-60
2021/12/01 03:27:24;;;;;;;;;;;;;;;24.91;63.57;96390.66;619624;229;67177;-60
2021/12/01 03:29:52;;;;;;;;;;;;;;;24.90;67.03;96400.62;619612;229;67434;-60
2021/12/01 03:32:20;;;;;;;;;;;;;;;24.85;64.05;96394.59;619634;229;62661;-60
2021/12/01 03:34:48;;;;;;;;;;;;;;;24.86;66.43;96398.88;619643;229;68048;-60
2021/12/01 03:37:15;;;;;;;;;;;;;;;24.87;65.53;96406.62;619687;229;64729;-60
2021/12/01 03:39:43;;;;;;;;;;;;;;;24.85;66.38;96402.66;619578;229;64953;-67
2021/12/01 03:42:10;;;;;;;;;;;;;;;24.84;66.94;96390.33;619594;227;67346;-67
2021/12/01 03:44:38;;;;;;;;;;;;;;;24.83;66.03;96402.98;619624;229;67035;-67
2021/12/01 03:47:06;;;;;;;;;;;;;;;24.84;66.88;96401.87;619647;229;65239;-67
2021/12/01 03:49:33;;;;;;;;;;;;;;;24.82;66.37;96409.44;619634;229;64564;-60
2021/12/01 03:52:01;;;;;;;;;;;;;;;24.81;67.05;96413.24;619621;227;67201;-60
2021/12/01 03:54:28;;;;;;;;;;;;;;;24.79;66.76;96410.06;619620;229;62993;-60
2021/12/01 03:56:56;;;;;;;;;;;;;;;24.81;65.70;96418.61;619649;229;67507;-59
2021/12/01 03:59:24;;;;;;;;;;;;;;;24.80;67.24;96417.04;619640;229;64571;-61
2021/12/01 04:01:52;;;;;;;;;;;;;;;24.78;63.79;96420.02;619636;229;65716;-61
2021/12/01 04:04:19;;;;;;;;;;;;;;;24.78;64.67;96419.23;619680;229;67322;-61
2021/12/01 04:06:47;;;;;;;;;;;;;;;24.80;65.20;96422.41;619604;229;64649;-61
2021/12/01 04:09:14;;;;;;;;;;;;;;;24.75;67.31;96415.27;619614;229;65264;-61
2021/12/01 04:11:42;;;;;;;;;;;;;;;24.73;68.02;96414.78;619640;229;64742;-61
2021/12/01 04:14:10;;;;;;;;;;;;;;;24.71;66.55;96410.81;619609;229;67947;-61
2021/12/01 04:16:37;;;;;;;;;;;;;;;24.72;68.11;96409.73;619683;229;62558;-61
2021/12/01 04:19:06;;;;;;;;;;;;;;;24.72;67.81;96409.73;619596;229;67273;-61
2021/12/01 04:21:33;;;;;;;;;;;;;;;24.69;68.41;96399.58;619624;226;67212;-61
2021/12/01 04:24:01;;;;;;;;;;;;;;;24.71;67.35;96402.76;619632;229;62655;-61
2021/12/01 04:26:32;;;;;;;;;;;;;;;24.69;68.27;96410.33;619626;229;67430;-61
2021/12/01 04:28:58;;;;;;;;;;;;;;;24.66;66.45;96395.61;619615;229;64667;-68
2021/12/01 04:31:26;;;;;;;;;;;;;;;24.69;68.24;96399.58;619619;229;65195;-68
2021/12/01 04:33:54;;;;;;;;;;;;;;;24.67;68.43;96397.22;619622;229;64570;-68
2021/12/01 04:36:24;;;;;;;;;;;;;;;24.65;67.61;96404.00;619692;229;66475;-68
2021/12/01 04:38:52;;;;;;;;;;;;;;;24.64;67.71;96392.47;619605;229;62644;-68
2021/12/01 04:41:22;;;;;;;;;;;;;;;24.64;67.31;96394.37;619652;229;65575;-68
2021/12/01 04:43:50;;;;;;;;;;;;;;;24.63;67.78;96390.08;619685;229;66859;-68
2021/12/01 04:46:19;;;;;;;;;;;;;;;24.62;67.70;96397.35;619603;229;65289;-68
2021/12/01 04:48:50;;;;;;;;;;;;;;;24.62;67.70;96388.50;619630;229;66881;-68
2021/12/01 04:51:17;;;;;;;;;;;;;;;24.61;67.45;96387.72;619617;229;64496;-67
2021/12/01 04:53:45;;;;;;;;;;;;;;;24.61;67.19;96400.33;619639;229;65184;-68
2021/12/01 04:56:13;;;;;;;;;;;;;;;24.59;66.90;96395.28;619691;229;64762;-67
2021/12/01 04:58:40;;;;;;;;;;;;;;;24.57;68.13;96384.05;619595;229;66934;-67
2021/12/01 05:01:08;;;;;;;;;;;;;;;24.57;67.75;96389.42;619663;229;62640;-67
2021/12/01 05:03:35;;;;;;;;;;;;;;;24.56;67.68;96388.64;619681;229;66834;-67
2021/12/01 05:06:03;;;;;;;;;;;;;;;24.56;66.07;96394.01;619660;229;67000;-67
2021/12/01 05:08:31;;;;;;;;;;;;;;;24.56;67.20;96402.06;619674;229;63780;-67
2021/12/01 05:10:58;;;;;;;;;;;;;;;24.56;68.03;96407.44;619637;229;67456;-67
2021/12/01 05:13:26;;;;;;;;;;;;;;;24.54;66.78;96414.22;619623;229;64648;-67
2021/12/01 05:15:54;;;;;;;;;;;;;;;24.53;66.95;96413.43;619665;229;65031;-67
2021/12/01 05:18:22;;;;;;;;;;;;;;;24.52;66.94;96422.58;619635;229;67115;-67
2021/12/01 05:20:50;;;;;;;;;;;;;;;24.53;66.96;96426.08;619707;229;64691;-68
2021/12/01 05:23:18;;;;;;;;;;;;;;;24.51;67.56;96429.06;619705;229;65189;-68
2021/12/01 05:25:47;;;;;;;;;;;;;;;24.51;68.15;96431.74;619662;229;64824;-61
2021/12/01 05:28:14;;;;;;;;;;;;;;;24.50;67.21;96432.86;619677;229;67038;-61
2021/12/01 05:30:42;;;;;;;;;;;;;;;24.50;67.38;96438.23;619661;229;65136;-68
2021/12/01 05:33:10;;;;;;;;;;;;;;;24.49;67.14;96430.46;619646;229;64730;-67
2021/12/01 05:35:38;;;;;;;;;;;;;;;24.49;67.01;96428.56;619740;229;66872;-67
2021/12/01 05:38:05;;;;;;;;;;;;;;;24.48;67.94;96432.36;619643;229;62654;-67
2021/12/01 05:40:33;;;;;;;;;;;;;;;24.48;67.39;96447.69;619546;229;67272;-67
2021/12/01 05:43:01;;;;;;;;;;;;;;;24.48;67.35;96453.84;619663;229;67260;-67
2021/12/01 05:45:29;;;;;;;;;;;;;;;24.47;67.73;96459.52;619645;229;62778;-67
2021/12/01 05:47:56;;;;;;;;;;;;;;;24.46;66.75;96466.78;619699;229;67205;-67
2021/12/01 05:50:25;;;;;;;;;;;;;;;24.45;67.64;96470.58;618922;229;64460;-66
2021/12/01 05:52:53;;;;;;;;;;;;;;;24.45;67.32;96475.95;617446;230;65195;-67
2021/12/01 05:55:21;;;;;;;;;;;;;;;24.44;67.69;96460.92;617474;230;64751;-60
2021/12/01 05:57:48;;;;;;;;;;;;;;;24.44;67.18;96470.88;617492;230;67311;-60
2021/12/01 06:00:16;;;;;;;;;;;;;;;24.43;67.98;96466.58;617571;230;65206;-60
2021/12/01 06:02:46;;;;;;;;;;;;;;;24.42;67.96;96460.42;617527;230;67175;-60
2021/12/01 06:05:13;;;;;;;;;;;;;;;24.42;67.66;96462.30;617318;230;64637;-60
2021/12/01 06:07:44;;;;;;;;;;;;;;;24.42;66.55;96467.66;615304;230;44002;-60
2021/12/01 06:10:18;;;;;;;;;;;;;;;24.41;66.60;96471.45;617344;230;67248;-61
2021/12/01 06:12:49;;;;;;;;;;;;;;;24.41;67.46;96487.58;617560;230;48558;-61
2021/12/01 06:15:18;;;;;;;;;;;;;;;24.42;67.22;96487.28;617391;230;65136;-59
2021/12/01 06:17:46;;;;;;;;;;;;;;;24.41;66.77;96493.73;617450;230;66893;-60
2021/12/01 06:20:17;;;;;;;;;;;;;;;24.43;67.38;96504.97;617542;230;46771;-60
2021/12/01 06:22:49;;;;;;;;;;;;;;;24.44;67.58;96508.48;617405;230;65181;-60
2021/12/01 06:25:18;;;;;;;;;;;;;;;24.43;67.72;96499.59;617496;230;67402;-60
2021/12/01 06:27:47;;;;;;;;;;;;;;;24.42;67.13;96506.08;617175;227;67137;-60
2021/12/01 06:30:15;;;;;;;;;;;;;;;24.44;67.27;96513.84;616081;230;65044;-60
2021/12/01 06:32:43;;;;;;;;;;;;;;;24.42;67.34;96508.77;616018;230;67251;-60
2021/12/01 06:35:10;;;;;;;;;;;;;;;24.45;67.72;96493.97;616068;230;67261;-60
2021/12/01 06:37:38;;;;;;;;;;;;;;;24.47;66.81;96505.99;616014;230;62862;-60
2021/12/01 06:40:06;;;;;;;;;;;;;;;24.46;67.08;96490.96;616101;230;67379;-60
2021/12/01 06:42:35;;;;;;;;;;;;;;;24.48;67.94;96480.71;616127;230;64994;-60
2021/12/01 06:45:07;;;;;;;;;;;;;;;24.49;67.45;96484.19;616011;230;65083;-60
2021/12/01 06:47:34;;;;;;;;;;;;;;;24.50;66.64;96478.52;615740;230;65082;-60
2021/12/01 06:50:03;;;;;;;;;;;;;;;24.51;64.35;96473.94;616180;230;67255;-60
2021/12/01 06:52:31;;;;;;;;;;;;;;;24.52;62.82;96478.98;617443;230;65187;-67
2021/12/01 06:54:59;;;;;;;;;;;;;;;24.54;63.91;96473.31;617467;230;65112;-68
2021/12/01 06:57:27;;;;;;;;;;;;;;;24.54;64.48;96489.44;617474;230;67045;-67
2021/12/01 06:59:55;;;;;;;;;;;;;;;24.57;65.33;96483.45;617468;227;65384;-67
2021/12/01 07:02:23;;;;;;;;;;;;;;;24.56;65.76;96477.28;617454;230;64755;-68
2021/12/01 07:04:51;;;;;;;;;;;;;;;24.56;62.09;96477.28;617428;230;66825;-68
2021/12/01 07:07:19;;;;;;;;;;;;;;;24.59;63.07;96486.63;617351;230;62629;-69
2021/12/01 07:09:50;;;;;;;;;;;;;;;24.58;66.45;96480.47;617516;227;67001;-67
2021/12/01 07:12:16;;;;;;;;;;;;;;;24.59;66.27;96478.56;616618;227;64826;-68
2021/12/01 07:14:43;;;;;;;;;;;;;;;24.62;63.71;96485.22;617467;230;65036;-68
2021/12/01 07:17:11;;;;;;;;;;;;;;;24.65;65.48;96489.98;617435;230;64529;-68
2021/12/01 07:19:39;;;;;;;;;;;;;;;24.65;64.04;96484.60;617339;230;66918;-68
2021/12/01 07:22:06;;;;;;;;;;;;;;;24.66;65.21;96491.55;617318;230;65227;-68
2021/12/01 07:24:34;;;;;;;;;;;;;;;24.66;65.13;96486.17;617285;230;65996;-68
2021/12/01 07:27:02;;;;;;;;;;;;;;;24.68;66.37;96486.67;617423;228;67256;-67
2021/12/01 07:29:30;;;;;;;;;;;;;;;24.69;64.76;96496.30;618502;229;62673;-69
2021/12/01 07:31:58;;;;;;;;;;;;;;;24.71;66.27;96499.48;618449;229;66889;-69
2021/12/01 07:34:28;;;;;;;;;;;;;;;24.71;66.86;96507.55;618443;229;67587;-69
2021/12/01 07:36:56;;;;;;;;;;;;;;;24.70;65.77;96503.28;618473;229;62510;-69
2021/12/01 07:39:23;;;;;;;;;;;;;;;24.72;66.39;96495.72;618359;229;67420;-69
2021/12/01 07:41:51;;;;;;;;;;;;;;;24.73;66.14;96494.61;618481;229;64496;-65
2021/12/01 07:44:19;;;;;;;;;;;;;;;24.75;65.39;96492.41;618503;229;64858;-65
2021/12/01 07:46:48;;;;;;;;;;;;;;;24.76;66.30;96493.98;618427;229;67388;-64
2021/12/01 07:49:18;;;;;;;;;;;;;;;24.76;65.93;96496.67;618403;229;67254;-63
2021/12/01 07:51:45;;;;;;;;;;;;;;;24.77;65.14;96493.69;617024;229;65054;-63
2021/12/01 07:54:13;;;;;;;;;;;;;;;24.78;66.82;96489.89;616059;230;65137;-63
2021/12/01 07:56:40;;;;;;;;;;;;;;;24.79;66.92;96499.53;617082;230;67278;-63
2021/12/01 07:59:10;;;;;;;;;;;;;;;24.79;66.07;96498.74;616970;230;62938;-63
2021/12/01 08:01:37;;;;;;;;;;;;;;;24.80;65.92;96497.66;617030;230;67357;-63
2021/12/01 08:04:05;;;;;;;;;;;;;;;24.81;66.68;96494.65;617042;230;65503;-59
2021/12/01 08:06:33;;;;;;;;;;;;;;;24.82;67.15;96500.81;613767;227;65175;-60
2021/12/01 08:09:01;;;;;;;;;;;;;;;24.82;66.68;96506.19;625221;227;64720;-59
2021/12/01 08:11:29;;;;;;;;;;;;;;;24.84;66.59;96511.27;625141;227;66980;-62
2021/12/01 08:13:56;;;;;;;;;;;;;;;24.84;65.65;96514.74;624704;227;65231;-63
2021/12/01 08:16:24;;;;;;;;;;;;;;;24.85;65.61;96521.69;624024;227;64529;-63
2021/12/01 08:18:54;;;;;;;;;;;;;;;24.86;66.28;96531.36;624504;227;66825;-63
2021/12/01 08:21:21;;;;;;;;;;;;;;;24.86;65.67;96539.42;624866;227;65159;-63
2021/12/01 08:23:49;;;;;;;;;;;;;;;24.87;65.44;96545.59;624837;227;68638;-63
2021/12/01 08:26:17;;;;;;;;;;;;;;;24.87;66.10;96535.63;624782;227;65073;-63
2021/12/01 08:28:47;;;;;;;;;;;;;;;24.87;67.73;96557.13;624846;227;64873;-63
2021/12/01 08:31:16;;;;;;;;;;;;;;;24.87;66.16;96559.81;625133;227;64818;-63
2021/12/01 08:33:44;;;;;;;;;;;;;;;24.92;59.89;96554.31;625332;227;67001;-63
2021/12/01 08:36:12;;;;;;;;;;;;;;;24.94;65.99;96544.05;625342;227;66030;-64
2021/12/01 08:38:41;;;;;;;;;;;;;;;24.95;64.21;96551.01;625362;227;64916;-61
2021/12/01 08:41:08;;;;;;;;;;;;;;;24.97;65.41;96543.44;625340;227;66857;-63
2021/12/01 08:43:36;;;;;;;;;;;;;;;24.97;61.37;96539.96;625339;227;65219;-63
2021/12/01 08:46:05;;;;;;;;;;;;;;;24.99;63.85;96540.42;625337;227;64210;-62
2021/12/01 08:48:33;;;;;;;;;;;;;;;25.04;62.84;96540.30;625306;227;66781;-59
2021/12/01 08:51:02;;;;;;;;;;;;;;;25.00;61.24;96534.75;625284;227;65279;-59
2021/12/01 08:53:31;;;;;;;;;;;;;;;25.05;56.90;96531.15;625339;227;68008;-59
2021/12/01 08:56:02;;;;;;;;;;;;;;;25.08;63.39;96535.11;625120;227;46560;-64
2021/12/01 08:58:30;;;;;;;;;;;;;;;25.04;59.23;96529.55;625164;227;65198;-65
2021/12/01 09:00:57;;;;;;;;;;;;;;;25.11;58.22;96524.53;618499;227;65754;-62
2021/12/01 09:03:25;;;;;;;;;;;;;;;25.14;57.09;96539.25;618605;227;68131;-63
2021/12/01 09:05:54;;;;;;;;;;;;;;;25.18;58.29;96521.41;625267;227;65215;-63
2021/12/01 09:08:22;;;;;;;;;;;;;;;25.21;60.18;96526.98;625269;227;64640;-64
2021/12/01 09:10:52;;;;;;;;;;;;;;;25.21;58.70;96526.20;625092;227;65733;-62
2021/12/01 09:13:21;;;;;;;;;;;;;;;25.16;58.17;96523.64;625244;227;62907;-63
2021/12/01 09:15:50;;;;;;;;;;;;;;;25.20;62.91;96535.34;625334;227;67183;-68
2021/12/01 09:18:17;;;;;;;;;;;;;;;25.20;57.37;96536.13;625387;227;67919;-68
2021/12/01 09:20:45;;;;;;;;;;;;;;;25.22;59.72;96536.62;625221;227;62667;-69
2021/12/01 09:23:13;;;;;;;;;;;;;;;25.22;56.76;96536.62;625343;227;67241;-69
2021/12/01 09:25:40;;;;;;;;;;;;;;;25.23;57.11;96540.10;625332;227;67301;-67
2021/12/01 09:28:08;;;;;;;;;;;;;;;25.25;58.42;96540.59;625284;227;65224;-68
2021/12/01 09:30:35;;;;;;;;;;;;;;;25.24;57.77;96542.49;625367;227;67369;-68
2021/12/01 09:33:03;;;;;;;;;;;;;;;25.25;56.34;96546.76;625336;227;64512;-69
2021/12/01 09:35:31;;;;;;;;;;;;;;;25.27;57.69;96543.77;625303;227;65053;-68
2021/12/01 09:37:58;;;;;;;;;;;;;;;25.27;59.27;96541.08;625221;227;64761;-66
2021/12/01 09:40:26;;;;;;;;;;;;;;;25.28;59.81;96552.62;625229;227;67278;-68
2021/12/01 09:42:55;;;;;;;;;;;;;;;25.24;62.26;96549.77;625351;227;62698;-69
2021/12/01 09:45:24;;;;;;;;;;;;;;;25.22;62.61;96549.28;625369;227;64778;-64
2021/12/01 09:47:52;;;;;;;;;;;;;;;25.16;56.48;96537.08;625301;227;65869;-67
2021/12/01 09:50:20;;;;;;;;;;;;;;;25.23;59.12;96542.79;625286;227;65052;-68
2021/12/01 09:52:48;;;;;;;;;;;;;;;25.23;59.24;96535.51;625417;227;63464;-68
2021/12/01 09:55:16;;;;;;;;;;;;;;;25.23;61.50;96530.12;625439;227;67032;-65
2021/12/01 09:58:01;;;;;;;;;;;;;;;25.24;60.92;96539.02;625185;227;65254;-65
2021/12/01 10:00:29;;;;;;;;;;;;;;;25.24;62.59;96533.64;625170;227;66917;-66
2021/12/01 10:02:57;;;;;;;;;;;;;;;25.21;61.05;96526.98;625351;227;66650;-65
2021/12/01 10:05:42;;;;;;;;;;;;;;;25.23;59.96;96523.97;625397;227;62737;-66
2021/12/01 10:08:13;;;;;;;;;;;;;;;25.25;60.96;96521.77;625312;227;44428;-67
2021/12/01 10:10:41;;;;;;;;;;;;;;;25.23;60.93;96515.90;625174;227;67180;-67
2021/12/01 10:13:09;;;;;;;;;;;;;;;25.20;64.10;96516.52;625454;227;62671;-66
2021/12/01 10:15:37;;;;;;;;;;;;;;;25.20;62.14;96516.52;625372;227;64757;-67
2021/12/01 10:18:09;;;;;;;;;;;;;;;25.22;63.03;96506.25;625412;227;67309;-65
2021/12/01 10:20:37;;;;;;;;;;;;;;;25.21;60.95;96513.53;620101;227;65250;-64
2021/12/01 10:23:15;;;;;;;;;;;;;;;25.24;62.42;96507.53;616721;230;64712;-65
2021/12/01 10:25:43;;;;;;;;;;;;;;;25.19;58.28;96513.05;616748;230;66945;-65
2021/12/01 10:28:13;;;;;;;;;;;;;;;25.24;60.33;96504.06;616547;230;65100;-66
2021/12/01 10:30:42;;;;;;;;;;;;;;;25.25;60.01;96492.97;615662;230;67096;-65
2021/12/01 10:33:16;;;;;;;;;;;;;;;25.25;58.91;96484.12;616716;230;67025;-66
2021/12/01 10:35:44;;;;;;;;;;;;;;;25.28;61.29;96491.56;616653;230;62991;-67
2021/12/01 10:38:13;;;;;;;;;;;;;;;25.27;60.04;96492.67;616659;230;64730;-67
2021/12/01 10:40:41;;;;;;;;;;;;;;;25.28;60.41;96491.56;616683;230;67032;-68
2021/12/01 10:43:10;;;;;;;;;;;;;;;25.25;60.31;96497.56;616682;230;65069;-66
2021/12/01 10:45:39;;;;;;;;;;;;;;;25.26;62.05;96493.76;616648;230;67329;-66
2021/12/01 10:48:11;;;;;;;;;;;;;;;25.23;61.16;96503.23;616719;230;45637;-67
2021/12/01 10:50:43;;;;;;;;;;;;;;;25.25;60.15;96502.94;616915;230;65213;-66
2021/12/01 10:53:12;;;;;;;;;;;;;;;25.25;61.12;96495.66;617693;229;63756;-66
2021/12/01 10:55:44;;;;;;;;;;;;;;;25.25;60.19;96492.19;617978;229;63266;-67
2021/12/01 10:58:13;;;;;;;;;;;;;;;25.25;61.54;96497.56;618682;229;65111;-66
2021/12/01 11:00:43;;;;;;;;;;;;;;;25.27;59.46;96491.89;618786;229;67157;-67
2021/12/01 11:03:19;;;;;;;;;;;;;;;25.28;59.63;96488.88;618828;229;69381;-67
2021/12/01 11:05:47;;;;;;;;;;;;;;;25.29;61.40;96495.86;618820;229;65319;-67
2021/12/01 11:08:26;;;;;;;;;;;;;;;25.29;58.70;96479.72;618832;229;67217;-67
2021/12/01 11:11:03;;;;;;;;;;;;;;;25.31;58.77;96488.24;618843;229;66952;-65
2021/12/01 11:13:27;;;;;;;;;;;;;;;25.32;57.97;96478.27;618458;229;65301;-67
2021/12/01 11:15:56;;;;;;;;;;;;;;;25.32;57.64;96480.96;618785;229;64486;-66
2021/12/01 11:18:25;;;;;;;;;;;;;;;25.32;56.90;96472.89;618820;229;65834;-67
2021/12/01 11:20:54;;;;;;;;;;;;;;;25.31;58.53;96474.80;618778;229;64870;-67
2021/12/01 11:23:23;;;;;;;;;;;;;;;25.29;58.40;96471.65;618861;229;65295;-66
2021/12/01 11:25:55;;;;;;;;;;;;;;;25.30;58.05;96467.05;618842;229;64643;-66
2021/12/01 11:28:24;;;;;;;;;;;;;;;25.29;57.15;96463.58;618744;229;63100;-66
2021/12/01 11:30:53;;;;;;;;;;;;;;;25.29;58.12;96471.65;618813;229;67231;-67
2021/12/01 11:33:21;;;;;;;;;;;;;;;25.28;59.28;96470.05;618879;229;64661;-66
2021/12/01 11:35:53;;;;;;;;;;;;;;;25.26;58.56;96464.17;618777;229;65024;-67
2021/12/01 11:38:21;;;;;;;;;;;;;;;25.27;58.79;96473.06;618320;229;64555;-67
2021/12/01 11:40:50;;;;;;;;;;;;;;;25.27;56.73;96456.92;617307;229;66941;-67
2021/12/01 11:43:19;;;;;;;;;;;;;;;25.27;57.46;96446.17;618791;229;65236;-67
2021/12/01 11:45:47;;;;;;;;;;;;;;;25.27;56.95;96452.34;618823;229;67330;-67
2021/12/01 11:48:16;;;;;;;;;;;;;;;25.24;56.78;96448.37;618758;229;64888;-67
2021/12/01 11:50:48;;;;;;;;;;;;;;;25.25;56.95;96427.64;619093;229;65212;-66
2021/12/01 11:53:20;;;;;;;;;;;;;;;25.25;55.38;96425.73;618504;229;64875;-66
2021/12/01 11:55:49;;;;;;;;;;;;;;;25.26;57.50;96439.97;618488;229;66831;-66
2021/12/01 11:58:35;;;;;;;;;;;;;;;25.26;56.94;96434.59;617759;229;65169;-66
2021/12/01 12:01:02;;;;;;;;;;;;;;;25.26;56.45;96418.45;617402;229;64750;-62
2021/12/01 12:03:30;;;;;;;;;;;;;;;25.25;56.43;96422.27;618011;229;67802;-61
2021/12/01 12:06:16;;;;;;;;;;;;;;;25.23;56.82;96422.56;618021;229;62642;-61
2021/12/01 12:08:56;;;;;;;;;;;;;;;25.23;56.49;96419.09;617823;229;67451;-60
2021/12/01 12:11:35;;;;;;;;;;;;;;;25.23;55.99;96411.02;618018;229;64864;-60
2021/12/01 12:14:10;;;;;;;;;;;;;;;25.24;56.80;96415.31;618124;229;65273;-60
2021/12/01 12:16:37;;;;;;;;;;;;;;;25.23;55.76;96409.12;618167;229;67209;-60
2021/12/01 12:19:05;;;;;;;;;;;;;;;25.23;55.78;96413.70;618146;229;64473;-60
2021/12/01 12:24:07;;;;;;;;;;;;;;;25.23;56.87;96421.78;618200;229;64791;-61
2021/12/01 12:26:41;;;;;;;;;;;;;;;25.21;56.01;96411.35;618053;229;67763;-61
2021/12/01 12:29:13;;;;;;;;;;;;;;;25.23;56.60;96413.70;618127;229;65057;-61
2021/12/01 12:31:40;;;;;;;;;;;;;;;25.21;56.04;96416.73;618111;229;68937;-60
2021/12/01 12:34:09;;;;;;;;;;;;;;;25.22;56.08;96417.52;618180;229;67966;-62
2021/12/01 12:36:38;;;;;;;;;;;;;;;25.21;57.16;96411.35;617993;229;65075;-62
2021/12/01 12:39:17;;;;;;;;;;;;;;;25.22;56.57;96417.52;618143;229;65232;-61
2021/12/01 12:42:00;;;;;;;;;;;;;;;25.21;57.09;96410.56;618201;229;64734;-61
2021/12/01 12:44:29;;;;;;;;;;;;;;;25.23;56.90;96424.47;618169;229;63883;-64
2021/12/01 12:47:04;;;;;;;;;;;;;;;25.15;58.89;96417.95;618100;229;67367;-62
2021/12/01 12:49:46;;;;;;;;;;;;;;;25.15;58.95;96427.92;618156;229;66981;-63
2021/12/01 12:52:27;;;;;;;;;;;;;;;25.14;57.65;96426.32;618221;229;62882;-62
2021/12/01 12:54:59;;;;;;;;;;;;;;;25.12;56.67;96426.62;618252;229;67114;-66
2021/12/01 12:57:28;;;;;;;;;;;;;;;25.12;56.53;96421.23;618243;229;66770;-67
2021/12/01 13:00:14;;;;;;;;;;;;;;;25.11;57.31;96416.19;617317;229;62657;-68
2021/12/01 13:02:41;;;;;;;;;;;;;;;25.11;55.80;96418.88;618122;229;64458;-68
2021/12/01 13:05:09;;;;;;;;;;;;;;;25.12;60.12;96423.93;618224;229;66762;-67